sensor_id;sensor_type;location;lat;lon;timestamp;P1;durP1;ratioP1;P2;durP2;ratioP2
18316;SDS011;9284;52.298;21.164;2023-04-24T00:01:23;9.93;;;5.53;;
18316;SDS011;9284;52.298;21.164;2023-04-24T00:03:51;8.60;;;5.22;;
18316;SDS011;9284;52.298;21.164;2023-04-24T00:06:19;9.43;;;5.90;;
18316;SDS011;9284;52.298;21.164;2023-04-24T00:08:50;12.20;;;5.75;;
18316;SDS011;9284;52.298;21.164;2023-04-24T00:11:18;9.77;;;5.47;;
18316;SDS011;9284;52.298;21.164;2023-04-24T00:13:46;8.70;;;5.63;;
18316;SDS011;9284;52.298;21.164;2023-04-24T00:16:15;9.57;;;6.03;;
18316;SDS011;9284;52.298;21.164;2023-04-24T00:18:44;9.55;;;5.53;;
18316;SDS011;9284;52.298;21.164;2023-04-24T00:21:14;10.65;;;5.78;;
18316;SDS011;9284;52.298;21.164;2023-04-24T00:23:44;8.52;;;5.93;;
18316;SDS011;9284;52.298;21.164;2023-04-24T00:26:12;12.57;;;6.07;;
18316;SDS011;9284;52.298;21.164;2023-04-24T00:28:40;14.48;;;6.85;;
18316;SDS011;9284;52.298;21.164;2023-04-24T00:31:11;10.48;;;6.10;;
18316;SDS011;9284;52.298;21.164;2023-04-24T00:33:40;9.13;;;5.70;;
18316;SDS011;9284;52.298;21.164;2023-04-24T00:36:09;11.00;;;6.00;;
18316;SDS011;9284;52.298;21.164;2023-04-24T00:38:38;9.27;;;6.32;;
18316;SDS011;9284;52.298;21.164;2023-04-24T00:41:06;9.60;;;6.38;;
18316;SDS011;9284;52.298;21.164;2023-04-24T00:43:35;10.82;;;5.82;;
18316;SDS011;9284;52.298;21.164;2023-04-24T00:46:03;11.63;;;6.95;;
18316;SDS011;9284;52.298;21.164;2023-04-24T00:48:32;12.60;;;6.32;;
18316;SDS011;9284;52.298;21.164;2023-04-24T00:51:01;12.18;;;5.88;;
18316;SDS011;9284;52.298;21.164;2023-04-24T00:53:31;11.52;;;6.00;;
18316;SDS011;9284;52.298;21.164;2023-04-24T00:55:59;11.60;;;5.88;;
18316;SDS011;9284;52.298;21.164;2023-04-24T00:58:27;9.10;;;6.53;;
18316;SDS011;9284;52.298;21.164;2023-04-24T01:00:57;11.18;;;5.95;;
18316;SDS011;9284;52.298;21.164;2023-04-24T01:03:28;9.50;;;5.85;;
18316;SDS011;9284;52.298;21.164;2023-04-24T01:05:58;13.77;;;6.18;;
18316;SDS011;9284;52.298;21.164;2023-04-24T01:08:28;8.73;;;6.38;;
18316;SDS011;9284;52.298;21.164;2023-04-24T01:10:58;9.10;;;6.13;;
18316;SDS011;9284;52.298;21.164;2023-04-24T01:13:26;11.68;;;6.32;;
18316;SDS011;9284;52.298;21.164;2023-04-24T01:15:55;13.60;;;6.90;;
18316;SDS011;9284;52.298;21.164;2023-04-24T01:18:23;9.43;;;6.25;;
18316;SDS011;9284;52.298;21.164;2023-04-24T01:20:52;10.52;;;6.10;;
18316;SDS011;9284;52.298;21.164;2023-04-24T01:23:24;10.60;;;6.03;;
18316;SDS011;9284;52.298;21.164;2023-04-24T01:25:53;10.50;;;6.45;;
18316;SDS011;9284;52.298;21.164;2023-04-24T01:28:22;12.57;;;6.30;;
18316;SDS011;9284;52.298;21.164;2023-04-24T01:30:50;12.35;;;6.07;;
18316;SDS011;9284;52.298;21.164;2023-04-24T01:33:22;10.52;;;6.45;;
18316;SDS011;9284;52.298;21.164;2023-04-24T01:35:50;9.75;;;6.15;;
18316;SDS011;9284;52.298;21.164;2023-04-24T01:38:19;11.48;;;6.28;;
18316;SDS011;9284;52.298;21.164;2023-04-24T01:40:48;11.60;;;6.68;;
18316;SDS011;9284;52.298;21.164;2023-04-24T01:43:19;10.15;;;6.25;;
18316;SDS011;9284;52.298;21.164;2023-04-24T01:45:48;12.00;;;6.47;;
18316;SDS011;9284;52.298;21.164;2023-04-24T01:48:16;9.98;;;6.65;;
18316;SDS011;9284;52.298;21.164;2023-04-24T01:50:45;9.60;;;6.45;;
18316;SDS011;9284;52.298;21.164;2023-04-24T01:53:13;11.90;;;6.22;;
18316;SDS011;9284;52.298;21.164;2023-04-24T01:55:42;9.55;;;6.15;;
18316;SDS011;9284;52.298;21.164;2023-04-24T01:58:13;9.93;;;6.30;;
18316;SDS011;9284;52.298;21.164;2023-04-24T02:00:41;14.70;;;6.45;;
18316;SDS011;9284;52.298;21.164;2023-04-24T02:03:10;13.73;;;6.45;;
18316;SDS011;9284;52.298;21.164;2023-04-24T02:05:38;10.98;;;6.05;;
18316;SDS011;9284;52.298;21.164;2023-04-24T02:08:06;14.98;;;6.22;;
18316;SDS011;9284;52.298;21.164;2023-04-24T02:10:36;12.32;;;6.40;;
18316;SDS011;9284;52.298;21.164;2023-04-24T02:13:04;12.68;;;6.50;;
18316;SDS011;9284;52.298;21.164;2023-04-24T02:15:34;11.35;;;7.13;;
18316;SDS011;9284;52.298;21.164;2023-04-24T02:18:03;14.18;;;7.00;;
18316;SDS011;9284;52.298;21.164;2023-04-24T02:20:33;11.82;;;6.55;;
18316;SDS011;9284;52.298;21.164;2023-04-24T02:23:01;14.60;;;6.65;;
18316;SDS011;9284;52.298;21.164;2023-04-24T02:25:30;11.57;;;6.70;;
18316;SDS011;9284;52.298;21.164;2023-04-24T02:27:58;10.57;;;6.60;;
18316;SDS011;9284;52.298;21.164;2023-04-24T02:30:26;12.55;;;6.65;;
18316;SDS011;9284;52.298;21.164;2023-04-24T02:32:56;12.95;;;7.10;;
18316;SDS011;9284;52.298;21.164;2023-04-24T02:35:24;11.73;;;6.55;;
18316;SDS011;9284;52.298;21.164;2023-04-24T02:37:52;10.27;;;6.78;;
18316;SDS011;9284;52.298;21.164;2023-04-24T02:40:21;12.80;;;6.78;;
18316;SDS011;9284;52.298;21.164;2023-04-24T02:42:49;11.98;;;7.35;;
18316;SDS011;9284;52.298;21.164;2023-04-24T02:45:17;11.60;;;6.45;;
18316;SDS011;9284;52.298;21.164;2023-04-24T02:47:45;10.95;;;7.15;;
18316;SDS011;9284;52.298;21.164;2023-04-24T02:50:15;12.07;;;6.63;;
18316;SDS011;9284;52.298;21.164;2023-04-24T02:52:43;9.95;;;6.38;;
18316;SDS011;9284;52.298;21.164;2023-04-24T02:55:12;11.93;;;7.18;;
18316;SDS011;9284;52.298;21.164;2023-04-24T02:57:40;14.18;;;6.63;;
18316;SDS011;9284;52.298;21.164;2023-04-24T03:00:09;11.38;;;7.40;;
18316;SDS011;9284;52.298;21.164;2023-04-24T03:02:38;12.02;;;7.18;;
18316;SDS011;9284;52.298;21.164;2023-04-24T03:05:07;13.95;;;7.45;;
18316;SDS011;9284;52.298;21.164;2023-04-24T03:07:39;12.10;;;7.30;;
18316;SDS011;9284;52.298;21.164;2023-04-24T03:10:08;11.52;;;7.07;;
18316;SDS011;9284;52.298;21.164;2023-04-24T03:12:36;11.40;;;6.95;;
18316;SDS011;9284;52.298;21.164;2023-04-24T03:15:05;15.05;;;7.30;;
18316;SDS011;9284;52.298;21.164;2023-04-24T03:17:36;11.27;;;6.78;;
18316;SDS011;9284;52.298;21.164;2023-04-24T03:20:05;9.75;;;6.53;;
18316;SDS011;9284;52.298;21.164;2023-04-24T03:22:35;12.50;;;7.20;;
18316;SDS011;9284;52.298;21.164;2023-04-24T03:25:08;12.60;;;7.80;;
18316;SDS011;9284;52.298;21.164;2023-04-24T03:27:37;12.05;;;7.03;;
18316;SDS011;9284;52.298;21.164;2023-04-24T03:30:24;14.05;;;7.15;;
18316;SDS011;9284;52.298;21.164;2023-04-24T03:32:57;11.52;;;6.95;;
18316;SDS011;9284;52.298;21.164;2023-04-24T03:35:29;12.48;;;7.93;;
18316;SDS011;9284;52.298;21.164;2023-04-24T03:38:00;13.38;;;7.20;;
18316;SDS011;9284;52.298;21.164;2023-04-24T03:40:50;12.45;;;7.85;;
18316;SDS011;9284;52.298;21.164;2023-04-24T03:43:33;13.88;;;7.55;;
18316;SDS011;9284;52.298;21.164;2023-04-24T03:46:03;13.27;;;7.50;;
18316;SDS011;9284;52.298;21.164;2023-04-24T03:48:35;10.73;;;6.75;;
18316;SDS011;9284;52.298;21.164;2023-04-24T03:51:05;12.85;;;7.70;;
18316;SDS011;9284;52.298;21.164;2023-04-24T03:53:35;13.30;;;7.32;;
18316;SDS011;9284;52.298;21.164;2023-04-24T03:56:05;17.55;;;7.38;;
18316;SDS011;9284;52.298;21.164;2023-04-24T03:58:34;12.18;;;7.85;;
18316;SDS011;9284;52.298;21.164;2023-04-24T04:01:02;15.55;;;7.57;;
18316;SDS011;9284;52.298;21.164;2023-04-24T04:04:04;17.30;;;7.25;;
18316;SDS011;9284;52.298;21.164;2023-04-24T04:06:34;12.23;;;7.07;;
18316;SDS011;9284;52.298;21.164;2023-04-24T04:09:04;11.30;;;7.10;;
18316;SDS011;9284;52.298;21.164;2023-04-24T04:11:36;12.05;;;6.85;;
18316;SDS011;9284;52.298;21.164;2023-04-24T04:14:04;13.05;;;7.32;;
18316;SDS011;9284;52.298;21.164;2023-04-24T04:16:34;11.13;;;7.00;;
18316;SDS011;9284;52.298;21.164;2023-04-24T04:19:05;13.73;;;7.05;;
18316;SDS011;9284;52.298;21.164;2023-04-24T04:21:35;18.48;;;8.07;;
18316;SDS011;9284;52.298;21.164;2023-04-24T04:24:24;16.20;;;8.68;;
18316;SDS011;9284;52.298;21.164;2023-04-24T04:26:54;10.80;;;7.25;;
18316;SDS011;9284;52.298;21.164;2023-04-24T04:29:31;11.07;;;7.38;;
18316;SDS011;9284;52.298;21.164;2023-04-24T04:32:00;16.83;;;7.90;;
18316;SDS011;9284;52.298;21.164;2023-04-24T04:34:30;12.85;;;6.85;;
18316;SDS011;9284;52.298;21.164;2023-04-24T04:36:59;17.25;;;7.22;;
18316;SDS011;9284;52.298;21.164;2023-04-24T04:39:48;11.82;;;7.05;;
18316;SDS011;9284;52.298;21.164;2023-04-24T04:42:21;12.02;;;7.20;;
18316;SDS011;9284;52.298;21.164;2023-04-24T04:44:50;12.70;;;7.30;;
18316;SDS011;9284;52.298;21.164;2023-04-24T04:47:25;13.52;;;6.97;;
18316;SDS011;9284;52.298;21.164;2023-04-24T04:49:56;13.88;;;7.00;;
18316;SDS011;9284;52.298;21.164;2023-04-24T04:52:26;10.23;;;6.65;;
18316;SDS011;9284;52.298;21.164;2023-04-24T04:55:03;12.63;;;6.80;;
18316;SDS011;9284;52.298;21.164;2023-04-24T04:57:56;12.10;;;6.88;;
18316;SDS011;9284;52.298;21.164;2023-04-24T05:00:27;12.90;;;7.32;;
18316;SDS011;9284;52.298;21.164;2023-04-24T05:03:07;11.73;;;7.13;;
18316;SDS011;9284;52.298;21.164;2023-04-24T05:05:52;11.30;;;6.57;;
18316;SDS011;9284;52.298;21.164;2023-04-24T05:08:21;12.63;;;7.13;;
18316;SDS011;9284;52.298;21.164;2023-04-24T05:10:54;12.90;;;7.68;;
18316;SDS011;9284;52.298;21.164;2023-04-24T05:13:26;11.88;;;7.30;;
18316;SDS011;9284;52.298;21.164;2023-04-24T05:16:17;9.48;;;6.43;;
18316;SDS011;9284;52.298;21.164;2023-04-24T05:18:47;18.85;;;7.28;;
18316;SDS011;9284;52.298;21.164;2023-04-24T05:21:19;18.73;;;7.35;;
18316;SDS011;9284;52.298;21.164;2023-04-24T05:23:50;14.18;;;7.47;;
18316;SDS011;9284;52.298;21.164;2023-04-24T05:26:32;10.85;;;6.65;;
18316;SDS011;9284;52.298;21.164;2023-04-24T05:29:04;9.80;;;6.88;;
18316;SDS011;9284;52.298;21.164;2023-04-24T05:31:32;10.95;;;6.82;;
18316;SDS011;9284;52.298;21.164;2023-04-24T05:34:04;13.35;;;7.57;;
18316;SDS011;9284;52.298;21.164;2023-04-24T05:36:33;11.80;;;7.50;;
18316;SDS011;9284;52.298;21.164;2023-04-24T05:39:02;11.85;;;7.30;;
18316;SDS011;9284;52.298;21.164;2023-04-24T05:41:33;17.05;;;6.80;;
18316;SDS011;9284;52.298;21.164;2023-04-24T05:44:02;18.83;;;7.28;;
18316;SDS011;9284;52.298;21.164;2023-04-24T05:46:32;13.77;;;8.23;;
18316;SDS011;9284;52.298;21.164;2023-04-24T05:49:00;12.77;;;7.15;;
18316;SDS011;9284;52.298;21.164;2023-04-24T05:51:30;14.60;;;7.15;;
18316;SDS011;9284;52.298;21.164;2023-04-24T05:53:59;12.20;;;6.85;;
18316;SDS011;9284;52.298;21.164;2023-04-24T05:56:28;12.30;;;7.07;;
18316;SDS011;9284;52.298;21.164;2023-04-24T05:58:58;10.48;;;6.50;;
18316;SDS011;9284;52.298;21.164;2023-04-24T06:01:27;12.15;;;6.60;;
18316;SDS011;9284;52.298;21.164;2023-04-24T06:04:06;13.45;;;7.32;;
18316;SDS011;9284;52.298;21.164;2023-04-24T06:06:35;11.10;;;6.90;;
18316;SDS011;9284;52.298;21.164;2023-04-24T06:09:03;13.60;;;6.82;;
18316;SDS011;9284;52.298;21.164;2023-04-24T06:11:32;12.43;;;6.43;;
18316;SDS011;9284;52.298;21.164;2023-04-24T06:14:02;9.98;;;6.55;;
18316;SDS011;9284;52.298;21.164;2023-04-24T06:16:36;14.63;;;6.88;;
18316;SDS011;9284;52.298;21.164;2023-04-24T06:19:18;13.70;;;7.05;;
18316;SDS011;9284;52.298;21.164;2023-04-24T06:21:47;18.17;;;6.50;;
18316;SDS011;9284;52.298;21.164;2023-04-24T06:24:15;19.92;;;6.75;;
18316;SDS011;9284;52.298;21.164;2023-04-24T06:26:43;11.63;;;6.60;;
18316;SDS011;9284;52.298;21.164;2023-04-24T06:29:12;14.68;;;7.03;;
18316;SDS011;9284;52.298;21.164;2023-04-24T06:31:40;9.05;;;6.70;;
18316;SDS011;9284;52.298;21.164;2023-04-24T06:34:09;13.48;;;7.10;;
18316;SDS011;9284;52.298;21.164;2023-04-24T06:36:39;12.10;;;7.07;;
18316;SDS011;9284;52.298;21.164;2023-04-24T06:39:07;10.75;;;6.40;;
18316;SDS011;9284;52.298;21.164;2023-04-24T06:41:35;10.15;;;6.63;;
18316;SDS011;9284;52.298;21.164;2023-04-24T06:44:08;12.93;;;7.40;;
18316;SDS011;9284;52.298;21.164;2023-04-24T06:46:36;10.40;;;7.13;;
18316;SDS011;9284;52.298;21.164;2023-04-24T06:49:07;11.15;;;7.30;;
18316;SDS011;9284;52.298;21.164;2023-04-24T06:51:35;14.30;;;7.57;;
18316;SDS011;9284;52.298;21.164;2023-04-24T06:54:05;9.00;;;7.07;;
18316;SDS011;9284;52.298;21.164;2023-04-24T06:56:33;13.52;;;7.65;;
18316;SDS011;9284;52.298;21.164;2023-04-24T06:59:01;11.50;;;7.47;;
18316;SDS011;9284;52.298;21.164;2023-04-24T07:01:30;11.70;;;7.72;;
18316;SDS011;9284;52.298;21.164;2023-04-24T07:03:58;10.40;;;7.28;;
18316;SDS011;9284;52.298;21.164;2023-04-24T07:06:27;12.73;;;7.60;;
18316;SDS011;9284;52.298;21.164;2023-04-24T07:08:56;12.65;;;7.45;;
18316;SDS011;9284;52.298;21.164;2023-04-24T07:11:27;9.10;;;7.40;;
18316;SDS011;9284;52.298;21.164;2023-04-24T07:13:56;12.75;;;7.57;;
18316;SDS011;9284;52.298;21.164;2023-04-24T07:16:24;9.95;;;6.85;;
18316;SDS011;9284;52.298;21.164;2023-04-24T07:18:52;11.38;;;7.22;;
18316;SDS011;9284;52.298;21.164;2023-04-24T07:21:21;13.55;;;7.55;;
18316;SDS011;9284;52.298;21.164;2023-04-24T07:23:49;14.55;;;7.80;;
18316;SDS011;9284;52.298;21.164;2023-04-24T07:26:17;11.88;;;7.20;;
18316;SDS011;9284;52.298;21.164;2023-04-24T07:28:47;12.80;;;7.63;;
18316;SDS011;9284;52.298;21.164;2023-04-24T07:31:15;13.77;;;7.30;;
18316;SDS011;9284;52.298;21.164;2023-04-24T07:33:43;11.18;;;7.55;;
18316;SDS011;9284;52.298;21.164;2023-04-24T07:36:12;10.30;;;6.95;;
18316;SDS011;9284;52.298;21.164;2023-04-24T07:38:43;12.20;;;7.00;;
18316;SDS011;9284;52.298;21.164;2023-04-24T07:41:11;19.67;;;8.00;;
18316;SDS011;9284;52.298;21.164;2023-04-24T07:43:40;11.45;;;7.00;;
18316;SDS011;9284;52.298;21.164;2023-04-24T07:46:09;11.32;;;7.35;;
18316;SDS011;9284;52.298;21.164;2023-04-24T07:48:38;11.75;;;7.22;;
18316;SDS011;9284;52.298;21.164;2023-04-24T07:51:06;10.30;;;7.10;;
18316;SDS011;9284;52.298;21.164;2023-04-24T07:53:36;10.40;;;6.97;;
18316;SDS011;9284;52.298;21.164;2023-04-24T07:56:04;13.18;;;6.95;;
18316;SDS011;9284;52.298;21.164;2023-04-24T07:58:33;12.50;;;7.32;;
18316;SDS011;9284;52.298;21.164;2023-04-24T08:01:01;11.73;;;6.75;;
18316;SDS011;9284;52.298;21.164;2023-04-24T08:03:31;8.82;;;6.32;;
18316;SDS011;9284;52.298;21.164;2023-04-24T08:05:59;13.25;;;6.18;;
18316;SDS011;9284;52.298;21.164;2023-04-24T08:08:28;13.95;;;7.07;;
18316;SDS011;9284;52.298;21.164;2023-04-24T08:10:56;13.55;;;6.63;;
18316;SDS011;9284;52.298;21.164;2023-04-24T08:13:25;10.68;;;6.38;;
18316;SDS011;9284;52.298;21.164;2023-04-24T08:15:53;10.65;;;6.20;;
18316;SDS011;9284;52.298;21.164;2023-04-24T08:18:21;12.73;;;6.78;;
18316;SDS011;9284;52.298;21.164;2023-04-24T08:20:51;9.25;;;7.20;;
18316;SDS011;9284;52.298;21.164;2023-04-24T08:23:19;8.60;;;6.90;;
18316;SDS011;9284;52.298;21.164;2023-04-24T08:25:48;11.57;;;7.00;;
18316;SDS011;9284;52.298;21.164;2023-04-24T08:28:16;9.73;;;6.30;;
18316;SDS011;9284;52.298;21.164;2023-04-24T08:30:46;11.38;;;5.82;;
18316;SDS011;9284;52.298;21.164;2023-04-24T08:33:15;12.25;;;6.13;;
18316;SDS011;9284;52.298;21.164;2023-04-24T08:35:43;8.98;;;6.45;;
18316;SDS011;9284;52.298;21.164;2023-04-24T08:38:13;10.95;;;6.55;;
18316;SDS011;9284;52.298;21.164;2023-04-24T08:40:41;13.57;;;6.18;;
18316;SDS011;9284;52.298;21.164;2023-04-24T08:43:12;11.27;;;6.85;;
18316;SDS011;9284;52.298;21.164;2023-04-24T08:45:42;10.32;;;6.88;;
18316;SDS011;9284;52.298;21.164;2023-04-24T08:48:10;12.35;;;6.70;;
18316;SDS011;9284;52.298;21.164;2023-04-24T08:50:56;15.32;;;6.95;;
18316;SDS011;9284;52.298;21.164;2023-04-24T08:53:26;9.10;;;6.55;;
18316;SDS011;9284;52.298;21.164;2023-04-24T08:55:56;16.52;;;6.65;;
18316;SDS011;9284;52.298;21.164;2023-04-24T08:58:24;9.75;;;6.55;;
18316;SDS011;9284;52.298;21.164;2023-04-24T09:00:54;13.48;;;6.75;;
18316;SDS011;9284;52.298;21.164;2023-04-24T09:03:23;11.15;;;6.97;;
18316;SDS011;9284;52.298;21.164;2023-04-24T09:05:52;8.48;;;6.10;;
18316;SDS011;9284;52.298;21.164;2023-04-24T09:08:22;9.68;;;6.22;;
18316;SDS011;9284;52.298;21.164;2023-04-24T09:10:53;15.82;;;6.70;;
18316;SDS011;9284;52.298;21.164;2023-04-24T09:13:24;10.32;;;6.47;;
18316;SDS011;9284;52.298;21.164;2023-04-24T09:15:53;14.05;;;6.43;;
18316;SDS011;9284;52.298;21.164;2023-04-24T09:18:23;13.60;;;7.15;;
18316;SDS011;9284;52.298;21.164;2023-04-24T09:21:00;9.93;;;6.07;;
18316;SDS011;9284;52.298;21.164;2023-04-24T09:23:30;10.70;;;6.43;;
18316;SDS011;9284;52.298;21.164;2023-04-24T09:26:01;8.88;;;6.13;;
18316;SDS011;9284;52.298;21.164;2023-04-24T09:28:32;14.25;;;6.88;;
18316;SDS011;9284;52.298;21.164;2023-04-24T09:31:04;18.17;;;7.70;;
18316;SDS011;9284;52.298;21.164;2023-04-24T09:33:33;16.38;;;6.85;;
18316;SDS011;9284;52.298;21.164;2023-04-24T09:36:02;12.07;;;6.63;;
18316;SDS011;9284;52.298;21.164;2023-04-24T09:38:33;9.40;;;6.88;;
18316;SDS011;9284;52.298;21.164;2023-04-24T09:41:04;12.32;;;6.78;;
18316;SDS011;9284;52.298;21.164;2023-04-24T09:43:34;11.88;;;7.07;;
18316;SDS011;9284;52.298;21.164;2023-04-24T09:46:06;11.63;;;6.65;;
18316;SDS011;9284;52.298;21.164;2023-04-24T09:48:36;11.88;;;6.35;;
18316;SDS011;9284;52.298;21.164;2023-04-24T09:51:06;14.85;;;6.38;;
18316;SDS011;9284;52.298;21.164;2023-04-24T09:53:37;15.68;;;6.40;;
18316;SDS011;9284;52.298;21.164;2023-04-24T09:56:12;9.10;;;5.22;;
18316;SDS011;9284;52.298;21.164;2023-04-24T09:58:40;9.32;;;5.05;;
18316;SDS011;9284;52.298;21.164;2023-04-24T10:01:08;8.40;;;5.22;;
18316;SDS011;9284;52.298;21.164;2023-04-24T10:03:37;10.18;;;5.32;;
18316;SDS011;9284;52.298;21.164;2023-04-24T10:06:05;8.35;;;5.15;;
18316;SDS011;9284;52.298;21.164;2023-04-24T10:08:36;10.40;;;5.20;;
18316;SDS011;9284;52.298;21.164;2023-04-24T10:11:04;8.20;;;5.07;;
18316;SDS011;9284;52.298;21.164;2023-04-24T10:13:35;6.35;;;4.72;;
18316;SDS011;9284;52.298;21.164;2023-04-24T10:16:04;7.32;;;4.75;;
18316;SDS011;9284;52.298;21.164;2023-04-24T10:18:33;8.27;;;4.78;;
18316;SDS011;9284;52.298;21.164;2023-04-24T10:21:03;9.60;;;4.43;;
18316;SDS011;9284;52.298;21.164;2023-04-24T10:23:31;9.90;;;4.60;;
18316;SDS011;9284;52.298;21.164;2023-04-24T10:26:00;12.10;;;5.00;;
18316;SDS011;9284;52.298;21.164;2023-04-24T10:28:29;6.20;;;4.68;;
18316;SDS011;9284;52.298;21.164;2023-04-24T10:31:01;9.55;;;4.45;;
18316;SDS011;9284;52.298;21.164;2023-04-24T10:33:29;5.38;;;4.50;;
18316;SDS011;9284;52.298;21.164;2023-04-24T10:35:58;6.20;;;4.55;;
18316;SDS011;9284;52.298;21.164;2023-04-24T10:38:27;5.22;;;4.65;;
18316;SDS011;9284;52.298;21.164;2023-04-24T10:40:57;7.93;;;4.55;;
18316;SDS011;9284;52.298;21.164;2023-04-24T10:43:34;7.55;;;5.25;;
18316;SDS011;9284;52.298;21.164;2023-04-24T10:46:04;10.10;;;4.93;;
18316;SDS011;9284;52.298;21.164;2023-04-24T10:48:33;12.50;;;5.88;;
18316;SDS011;9284;52.298;21.164;2023-04-24T10:51:02;7.22;;;5.40;;
18316;SDS011;9284;52.298;21.164;2023-04-24T10:53:30;9.30;;;6.03;;
18316;SDS011;9284;52.298;21.164;2023-04-24T10:56:03;9.63;;;6.40;;
18316;SDS011;9284;52.298;21.164;2023-04-24T10:58:36;8.88;;;5.57;;
18316;SDS011;9284;52.298;21.164;2023-04-24T11:01:08;6.45;;;5.18;;
18316;SDS011;9284;52.298;21.164;2023-04-24T11:03:37;8.13;;;6.00;;
18316;SDS011;9284;52.298;21.164;2023-04-24T11:06:08;10.15;;;5.30;;
18316;SDS011;9284;52.298;21.164;2023-04-24T11:08:37;6.97;;;5.43;;
18316;SDS011;9284;52.298;21.164;2023-04-24T11:11:10;7.50;;;5.25;;
18316;SDS011;9284;52.298;21.164;2023-04-24T11:16:34;7.25;;;5.00;;
18316;SDS011;9284;52.298;21.164;2023-04-24T11:19:06;6.90;;;5.40;;
18316;SDS011;9284;52.298;21.164;2023-04-24T11:21:40;10.55;;;5.53;;
18316;SDS011;9284;52.298;21.164;2023-04-24T11:26:59;8.32;;;5.80;;
18316;SDS011;9284;52.298;21.164;2023-04-24T11:29:40;6.75;;;4.80;;
18316;SDS011;9284;52.298;21.164;2023-04-24T11:32:27;9.93;;;5.22;;
18316;SDS011;9284;52.298;21.164;2023-04-24T11:34:58;9.07;;;6.30;;
18316;SDS011;9284;52.298;21.164;2023-04-24T11:37:28;10.38;;;6.40;;
18316;SDS011;9284;52.298;21.164;2023-04-24T11:40:01;8.00;;;6.20;;
18316;SDS011;9284;52.298;21.164;2023-04-24T11:42:33;9.57;;;6.03;;
18316;SDS011;9284;52.298;21.164;2023-04-24T11:45:02;12.70;;;6.20;;
18316;SDS011;9284;52.298;21.164;2023-04-24T11:47:37;7.97;;;5.97;;
18316;SDS011;9284;52.298;21.164;2023-04-24T11:50:07;9.25;;;5.97;;
18316;SDS011;9284;52.298;21.164;2023-04-24T11:52:37;11.68;;;4.90;;
18316;SDS011;9284;52.298;21.164;2023-04-24T11:55:08;6.75;;;4.78;;
18316;SDS011;9284;52.298;21.164;2023-04-24T11:57:50;8.73;;;4.38;;
18316;SDS011;9284;52.298;21.164;2023-04-24T12:00:24;5.90;;;4.15;;
18316;SDS011;9284;52.298;21.164;2023-04-24T12:03:04;8.40;;;4.90;;
18316;SDS011;9284;52.298;21.164;2023-04-24T12:05:34;6.47;;;4.88;;
18316;SDS011;9284;52.298;21.164;2023-04-24T12:08:04;6.32;;;4.63;;
18316;SDS011;9284;52.298;21.164;2023-04-24T12:10:33;7.55;;;4.50;;
18316;SDS011;9284;52.298;21.164;2023-04-24T12:13:02;8.93;;;4.85;;
18316;SDS011;9284;52.298;21.164;2023-04-24T12:15:30;6.80;;;4.30;;
18316;SDS011;9284;52.298;21.164;2023-04-24T12:17:59;6.10;;;4.45;;
18316;SDS011;9284;52.298;21.164;2023-04-24T12:20:29;7.50;;;4.18;;
18316;SDS011;9284;52.298;21.164;2023-04-24T12:22:59;6.93;;;3.80;;
18316;SDS011;9284;52.298;21.164;2023-04-24T12:25:28;10.40;;;4.28;;
18316;SDS011;9284;52.298;21.164;2023-04-24T12:28:08;8.25;;;3.85;;
18316;SDS011;9284;52.298;21.164;2023-04-24T12:30:39;9.85;;;4.15;;
18316;SDS011;9284;52.298;21.164;2023-04-24T12:33:10;10.13;;;4.20;;
18316;SDS011;9284;52.298;21.164;2023-04-24T12:35:40;7.18;;;3.78;;
18316;SDS011;9284;52.298;21.164;2023-04-24T12:38:09;6.28;;;4.32;;
18316;SDS011;9284;52.298;21.164;2023-04-24T12:40:39;5.13;;;4.10;;
18316;SDS011;9284;52.298;21.164;2023-04-24T12:43:14;6.55;;;3.72;;
18316;SDS011;9284;52.298;21.164;2023-04-24T12:45:44;3.97;;;3.53;;
18316;SDS011;9284;52.298;21.164;2023-04-24T12:48:12;8.52;;;3.85;;
18316;SDS011;9284;52.298;21.164;2023-04-24T12:50:42;6.40;;;3.70;;
18316;SDS011;9284;52.298;21.164;2023-04-24T12:53:13;5.30;;;3.83;;
18316;SDS011;9284;52.298;21.164;2023-04-24T12:55:41;10.23;;;4.10;;
18316;SDS011;9284;52.298;21.164;2023-04-24T12:58:10;8.40;;;4.25;;
18316;SDS011;9284;52.298;21.164;2023-04-24T13:00:39;7.55;;;4.25;;
18316;SDS011;9284;52.298;21.164;2023-04-24T13:03:10;6.32;;;3.97;;
18316;SDS011;9284;52.298;21.164;2023-04-24T13:05:39;9.07;;;3.92;;
18316;SDS011;9284;52.298;21.164;2023-04-24T13:08:09;38.22;;;6.03;;
18316;SDS011;9284;52.298;21.164;2023-04-24T13:10:39;21.50;;;5.78;;
18316;SDS011;9284;52.298;21.164;2023-04-24T13:13:08;31.98;;;5.35;;
18316;SDS011;9284;52.298;21.164;2023-04-24T13:15:38;16.15;;;5.15;;
18316;SDS011;9284;52.298;21.164;2023-04-24T13:18:06;20.20;;;4.30;;
18316;SDS011;9284;52.298;21.164;2023-04-24T13:20:34;14.93;;;4.20;;
18316;SDS011;9284;52.298;21.164;2023-04-24T13:23:03;27.23;;;4.25;;
18316;SDS011;9284;52.298;21.164;2023-04-24T13:25:34;20.65;;;4.20;;
18316;SDS011;9284;52.298;21.164;2023-04-24T13:28:03;10.90;;;4.38;;
18316;SDS011;9284;52.298;21.164;2023-04-24T13:30:32;9.48;;;3.80;;
18316;SDS011;9284;52.298;21.164;2023-04-24T13:33:01;17.73;;;4.13;;
18316;SDS011;9284;52.298;21.164;2023-04-24T13:35:30;10.43;;;3.60;;
18316;SDS011;9284;52.298;21.164;2023-04-24T13:37:58;10.23;;;3.78;;
18316;SDS011;9284;52.298;21.164;2023-04-24T13:40:27;7.43;;;3.50;;
18316;SDS011;9284;52.298;21.164;2023-04-24T13:42:57;11.57;;;4.05;;
18316;SDS011;9284;52.298;21.164;2023-04-24T13:45:25;7.72;;;3.28;;
18316;SDS011;9284;52.298;21.164;2023-04-24T13:47:53;9.82;;;3.97;;
18316;SDS011;9284;52.298;21.164;2023-04-24T13:50:23;7.22;;;3.55;;
18316;SDS011;9284;52.298;21.164;2023-04-24T13:52:51;9.18;;;4.75;;
18316;SDS011;9284;52.298;21.164;2023-04-24T13:55:20;7.72;;;4.40;;
18316;SDS011;9284;52.298;21.164;2023-04-24T13:57:48;6.63;;;4.25;;
18316;SDS011;9284;52.298;21.164;2023-04-24T14:00:20;7.13;;;4.25;;
18316;SDS011;9284;52.298;21.164;2023-04-24T14:02:48;15.07;;;3.72;;
18316;SDS011;9284;52.298;21.164;2023-04-24T14:05:17;7.95;;;4.47;;
18316;SDS011;9284;52.298;21.164;2023-04-24T14:07:47;9.98;;;4.20;;
18316;SDS011;9284;52.298;21.164;2023-04-24T14:10:15;9.13;;;4.15;;
18316;SDS011;9284;52.298;21.164;2023-04-24T14:12:44;5.82;;;3.60;;
18316;SDS011;9284;52.298;21.164;2023-04-24T14:15:12;4.53;;;3.45;;
18316;SDS011;9284;52.298;21.164;2023-04-24T14:17:42;4.20;;;3.75;;
18316;SDS011;9284;52.298;21.164;2023-04-24T14:20:11;9.80;;;3.63;;
18316;SDS011;9284;52.298;21.164;2023-04-24T14:22:40;4.57;;;3.42;;
18316;SDS011;9284;52.298;21.164;2023-04-24T14:25:08;5.63;;;3.28;;
18316;SDS011;9284;52.298;21.164;2023-04-24T14:27:37;6.45;;;3.60;;
18316;SDS011;9284;52.298;21.164;2023-04-24T14:30:06;6.60;;;3.75;;
18316;SDS011;9284;52.298;21.164;2023-04-24T14:32:35;4.90;;;3.60;;
18316;SDS011;9284;52.298;21.164;2023-04-24T14:35:07;8.10;;;3.28;;
18316;SDS011;9284;52.298;21.164;2023-04-24T14:37:36;5.35;;;3.75;;
18316;SDS011;9284;52.298;21.164;2023-04-24T14:40:07;7.40;;;3.03;;
18316;SDS011;9284;52.298;21.164;2023-04-24T14:42:57;5.20;;;3.00;;
18316;SDS011;9284;52.298;21.164;2023-04-24T14:45:25;6.28;;;3.70;;
18316;SDS011;9284;52.298;21.164;2023-04-24T14:47:54;4.28;;;3.28;;
18316;SDS011;9284;52.298;21.164;2023-04-24T14:50:25;6.10;;;3.15;;
18316;SDS011;9284;52.298;21.164;2023-04-24T14:52:55;4.68;;;3.28;;
18316;SDS011;9284;52.298;21.164;2023-04-24T14:55:24;8.73;;;3.22;;
18316;SDS011;9284;52.298;21.164;2023-04-24T14:57:52;6.05;;;3.45;;
18316;SDS011;9284;52.298;21.164;2023-04-24T15:00:21;6.20;;;3.33;;
18316;SDS011;9284;52.298;21.164;2023-04-24T15:02:50;4.85;;;3.30;;
18316;SDS011;9284;52.298;21.164;2023-04-24T15:05:19;5.75;;;3.45;;